Time;durP1;ratioP1;P1;durP2;ratioP2;P2;SDS_P1;SDS_P2;PMS_P1;PMS_P2;Temp;Humidity;BMP_temperature;BMP_pressure;BME280_temperature;BME280_humidity;BME280_pressure;Samples;Min_cycle;Max_cycle;Signal;HPM_P1;HPM_P2
2022/06/27 00:41:52;;;;;;;9.73;3.17;;;;;;;-143.84;67.98;45043.34;5053046;28;20429;-78
2022/06/27 00:44:33;;;;;;;3.63;3.30;;;;;;;-143.84;67.80;45037.66;5053000;28;20500;-78
2022/06/27 00:47:01;;;;;;;3.90;3.60;;;;;;;-143.84;67.94;45022.41;5052207;28;20935;-79
2022/06/27 00:49:28;;;;;;;8.93;3.50;;;;;;;-143.84;68.18;45022.41;5053035;28;20472;-78
2022/06/27 00:51:56;;;;;;;3.53;3.10;;;;;;;-143.84;68.24;45018.59;5052733;28;20474;-78
2022/06/27 00:54:24;;;;;;;3.27;3.00;;;;;;;-143.84;68.32;45039.53;5052746;28;20500;-78
2022/06/27 00:56:53;;;;;;;3.90;3.60;;;;;;;-143.84;68.47;45009.09;5052441;28;20446;-78
2022/06/27 00:59:20;;;;;;;3.43;3.13;;;;;;;-143.84;68.63;45031.94;5052475;28;20449;-78
2022/06/27 01:01:48;;;;;;;3.97;3.60;;;;;;;-143.84;68.86;45009.09;5052704;28;20430;-78
2022/06/27 01:04:15;;;;;;;2.90;2.70;;;;;;;-143.84;69.04;45014.78;5052091;28;20449;-78
2022/06/27 01:06:43;;;;;;;3.70;3.40;;;;;;;-143.84;69.26;45018.59;5052194;28;20943;-78
2022/06/27 01:09:10;;;;;;;5.23;3.23;;;;;;;-143.84;69.59;45026.22;5052494;28;20997;-78
2022/06/27 01:11:37;;;;;;;8.90;3.40;;;;;;;-143.84;70.08;45031.94;5052514;28;20438;-78
2022/06/27 01:14:06;;;;;;;6.00;3.10;;;;;;;-143.84;70.41;45010.97;5052199;28;20445;-78
2022/06/27 01:16:34;;;;;;;7.90;3.63;;;;;;;-143.84;70.79;45020.50;5052345;28;20437;-78
2022/06/27 01:19:03;;;;;;;3.70;3.30;;;;;;;-143.84;70.92;45028.13;5052039;28;20438;-78
2022/06/27 01:21:34;;;;;;;3.70;3.50;;;;;;;-143.84;71.24;45018.59;5051394;28;20492;-78
2022/06/27 01:24:02;;;;;;;9.27;3.23;;;;;;;-143.84;71.55;45018.59;5052373;28;20480;-78
2022/06/27 01:26:30;;;;;;;5.10;3.67;;;;;;;-143.84;71.77;45014.78;5051889;28;20951;-78
2022/06/27 01:28:57;;;;;;;4.00;3.23;;;;;;;-143.84;72.11;45024.31;5052087;28;20426;-78
2022/06/27 01:31:26;;;;;;;3.70;3.20;;;;;;;-143.84;71.90;45054.78;5052291;28;20996;-78
2022/06/27 01:33:53;;;;;;;9.67;2.90;;;;;;;-143.84;71.88;45028.13;5051643;28;20853;-78
2022/06/27 01:39:06;;;;;;;8.30;3.57;;;;;;;-143.84;71.34;45014.78;5051589;28;20414;-78
2022/06/27 01:41:33;;;;;;;5.03;3.00;;;;;;;-143.84;71.14;45018.59;5051848;28;20456;-78
2022/06/27 01:44:01;;;;;;;7.70;3.00;;;;;;;-143.84;70.64;45028.13;5051671;28;20492;-78
2022/06/27 01:46:40;;;;;;;5.93;3.43;;;;;;;-143.84;70.30;45031.94;5051219;28;20448;-78
2022/06/27 01:49:07;;;;;;;11.67;3.33;;;;;;;-143.84;70.31;45033.84;5051513;28;20507;-78
2022/06/27 01:51:36;;;;;;;5.90;3.83;;;;;;;-143.84;70.44;45016.69;5051603;28;20442;-78
2022/06/27 01:54:06;;;;;;;3.80;3.50;;;;;;;-143.84;70.91;45089.06;5051038;28;20461;-78
2022/06/27 01:56:34;;;;;;;3.70;3.40;;;;;;;-143.84;70.99;45014.78;5051233;28;21022;-78
2022/06/27 01:59:01;;;;;;;3.50;3.30;;;;;;;-143.84;70.84;45012.88;5051535;28;20430;-78
2022/06/27 02:01:29;;;;;;;5.00;3.23;;;;;;;-143.84;70.91;45020.50;5051373;28;20429;-78
2022/06/27 02:03:59;;;;;;;4.67;3.70;;;;;;;-143.84;70.97;45039.53;5051147;28;20438;-78
2022/06/27 02:06:27;;;;;;;3.17;3.00;;;;;;;-143.84;70.93;45018.59;5051380;28;20438;-78
2022/06/27 02:08:56;;;;;;;4.00;3.70;;;;;;;-143.84;71.14;45012.88;5050987;28;20496;-78
2022/06/27 02:11:26;;;;;;;3.70;3.40;;;;;;;-143.84;71.26;45028.13;5051116;28;20959;-78
2022/06/27 02:13:54;;;;;;;3.70;3.40;;;;;;;-143.84;71.31;45020.50;5051118;28;21147;-78
2022/06/27 02:16:22;;;;;;;8.20;3.30;;;;;;;-143.84;71.23;45035.75;5051059;28;20452;-78
2022/06/27 02:18:49;;;;;;;4.20;3.60;;;;;;;-143.84;71.23;45033.84;5051554;28;20843;-78
2022/06/27 02:21:18;;;;;;;9.20;3.90;;;;;;;-143.84;71.34;45020.50;5050728;28;20476;-78
2022/06/27 02:23:47;;;;;;;3.73;3.43;;;;;;;-143.84;71.39;45037.66;5048319;28;20438;-78
2022/06/27 02:26:15;;;;;;;3.70;3.43;;;;;;;-143.84;71.48;45016.69;5047902;28;20875;-78
2022/06/27 02:28:44;;;;;;;3.20;3.00;;;;;;;-143.84;71.62;45050.97;5050431;28;20442;-77
2022/06/27 02:31:12;;;;;;;3.93;3.37;;;;;;;-143.84;71.73;45056.69;5050252;28;20511;-77
2022/06/27 02:33:42;;;;;;;3.67;3.37;;;;;;;-143.84;71.70;45037.66;5052167;28;20477;-77
2022/06/27 02:36:13;;;;;;;3.60;3.30;;;;;;;-143.84;71.94;45035.75;5055151;28;20433;-77
2022/06/27 02:38:42;;;;;;;8.53;3.20;;;;;;;-143.84;72.05;45041.44;5055101;28;20669;-77
2022/06/27 02:41:14;;;;;;;8.50;3.77;;;;;;;-143.84;72.14;45037.66;5088267;28;20483;-77
2022/06/27 02:43:46;;;;;;;3.90;3.50;;;;;;;-143.84;71.99;45028.13;5094735;28;20949;-77
2022/06/27 02:46:13;;;;;;;4.70;3.90;;;;;;;-143.84;72.50;45111.91;5095276;28;20425;-77
2022/06/27 02:48:41;;;;;;;7.37;3.83;;;;;;;-143.84;72.50;45062.41;5094981;28;20496;-77
2022/06/27 02:51:15;;;;;;;4.93;3.67;;;;;;;-143.84;72.64;45037.66;5095389;28;20541;-78
2022/06/27 02:53:48;;;;;;;8.20;4.33;;;;;;;-143.84;73.03;45049.06;5095068;28;20483;-78
2022/06/27 02:56:22;;;;;;;5.57;4.17;;;;;;;-143.84;73.13;45030.03;5094764;28;20432;-77
2022/06/27 02:58:59;;;;;;;4.47;4.07;;;;;;;-143.84;73.42;45041.44;5094655;28;20436;-77
2022/06/27 03:01:30;;;;;;;4.27;3.87;;;;;;;-143.84;73.82;45050.97;5084005;28;20433;-77
2022/06/27 03:03:59;;;;;;;7.20;4.40;;;;;;;-143.84;73.76;45024.31;5074826;28;20456;-77
2022/06/27 03:06:27;;;;;;;11.93;3.80;;;;;;;-143.84;73.87;45005.28;5084199;28;20467;-77
2022/06/27 03:08:54;;;;;;;4.50;4.20;;;;;;;-143.84;74.05;45018.59;5080553;28;20505;-77
2022/06/27 03:11:23;;;;;;;4.23;3.93;;;;;;;-143.84;74.27;45043.34;5074143;28;20506;-76
2022/06/27 03:13:54;;;;;;;5.77;4.10;;;;;;;-143.84;74.66;45052.88;5074899;28;21033;-76
2022/06/27 03:16:22;;;;;;;4.97;4.47;;;;;;;-143.84;74.85;45043.34;5074202;28;20506;-76
2022/06/27 03:18:51;;;;;;;4.30;4.00;;;;;;;-143.84;75.08;45030.03;5087776;28;20448;-78
2022/06/27 03:21:20;;;;;;;4.90;4.40;;;;;;;-143.84;75.34;45014.78;5093997;28;20428;-77
2022/06/27 03:23:48;;;;;;;4.60;4.20;;;;;;;-143.84;75.55;45030.03;5094002;28;20436;-77
2022/06/27 03:26:17;;;;;;;5.97;4.40;;;;;;;-143.84;75.79;45045.25;5093397;28;20841;-77
2022/06/27 03:28:44;;;;;;;4.80;4.40;;;;;;;-143.84;76.21;45043.34;5093796;28;20436;-77
2022/06/27 03:31:13;;;;;;;4.70;4.30;;;;;;;-143.84;76.15;45030.03;5093853;28;20980;-76
2022/06/27 03:33:41;;;;;;;7.13;4.83;;;;;;;-143.84;76.53;45045.25;5092492;28;20467;-78
2022/06/27 03:36:08;;;;;;;12.60;5.00;;;;;;;-143.84;76.92;45045.25;5091369;28;20453;-77
2022/06/27 03:38:35;;;;;;;12.20;5.07;;;;;;;-143.84;77.37;45047.16;5092894;28;20443;-77
2022/06/27 03:41:03;;;;;;;6.60;5.83;;;;;;;-143.84;77.57;45066.22;5093480;28;20554;-77
2022/06/27 03:43:30;;;;;;;11.30;6.70;;;;;;;-143.84;77.84;45039.53;5093757;28;20509;-77
2022/06/27 03:45:58;;;;;;;6.10;5.50;;;;;;;-143.84;77.85;45050.97;5093698;28;20436;-77
2022/06/27 03:51:12;;;;;;;6.17;5.57;;;;;;;-143.84;77.99;45050.97;5093577;28;20574;-77
2022/06/27 03:53:39;;;;;;;7.33;5.30;;;;;;;-143.84;77.83;45047.16;5093741;28;20483;-77
2022/06/27 03:56:08;;;;;;;7.30;6.00;;;;;;;-143.84;76.02;45070.00;5093767;28;20436;-77
2022/06/27 03:58:35;;;;;;;12.43;5.30;;;;;;;-143.84;74.56;45031.94;5093454;28;20934;-77
2022/06/27 04:01:03;;;;;;;7.70;5.90;;;;;;;-143.84;73.09;45030.03;5093349;28;20443;-77
2022/06/27 04:03:32;;;;;;;5.87;5.30;;;;;;;-143.84;72.10;45028.13;5093674;28;20450;-77
2022/06/27 04:05:59;;;;;;;6.27;5.60;;;;;;;-143.84;70.95;45037.66;5093265;28;20443;-77
2022/06/27 04:08:27;;;;;;;6.10;5.50;;;;;;;-143.84;69.47;45001.47;5093238;28;20481;-77
2022/06/27 04:10:54;;;;;;;6.00;5.40;;;;;;;-143.84;69.08;45020.50;5086843;28;20475;-78
2022/06/27 04:13:21;;;;;;;7.03;5.97;;;;;;;-143.84;68.44;44997.66;5088372;28;20570;-78
2022/06/27 04:15:49;;;;;;;6.17;5.23;;;;;;;-143.84;68.87;44990.03;5082234;28;20499;-78
2022/06/27 04:18:16;;;;;;;7.83;5.80;;;;;;;-143.84;69.28;45016.69;5072940;28;20444;-78
2022/06/27 04:20:45;;;;;;;7.37;6.23;;;;;;;-143.84;69.83;45026.22;5072967;28;20436;-78
2022/06/27 04:23:12;;;;;;;5.47;5.03;;;;;;;-143.84;70.31;45031.94;5072592;28;20456;-77
2022/06/27 04:25:42;;;;;;;8.70;5.60;;;;;;;-143.84;70.89;45020.50;5072646;28;20445;-77
2022/06/27 04:28:10;;;;;;;8.07;5.70;;;;;;;-143.84;71.53;45022.41;5072799;28;20968;-77
2022/06/27 04:30:39;;;;;;;8.60;5.90;;;;;;;-143.84;71.59;45028.13;5072828;28;20437;-78
2022/06/27 04:33:06;;;;;;;6.73;6.03;;;;;;;-143.84;71.51;45024.31;5073049;28;20475;-78
2022/06/27 04:35:34;;;;;;;9.97;5.50;;;;;;;-143.84;71.57;45026.22;5072887;28;20445;-78
2022/06/27 04:38:02;;;;;;;5.93;4.87;;;;;;;-143.84;71.57;45018.59;5072683;28;20441;-78
2022/06/27 04:40:30;;;;;;;5.40;4.90;;;;;;;-143.84;70.70;44995.75;5072029;28;20908;-78
2022/06/27 04:42:57;;;;;;;5.40;5.00;;;;;;;-143.84;69.32;45010.97;5072463;28;20436;-78
2022/06/27 04:45:25;;;;;;;11.23;4.10;;;;;;;-143.84;66.87;44971.00;5072568;28;20531;-78
2022/06/27 04:47:53;;;;;;;9.83;4.57;;;;;;;-143.84;64.99;44999.56;5080549;28;20436;-78
2022/06/27 04:50:21;;;;;;;8.07;4.77;;;;;;;-143.84;63.53;45014.78;5084607;28;20459;-79
2022/06/27 04:52:49;;;;;;;4.80;4.40;;;;;;;-143.84;61.99;44976.72;5089840;28;20451;-79
2022/06/27 04:55:18;;;;;;;7.10;5.27;;;;;;;-143.84;60.42;45022.41;5092340;28;20440;-80
2022/06/27 04:57:46;;;;;;;4.67;4.27;;;;;;;-143.84;59.09;44990.03;5092076;28;20440;-78
2022/06/27 05:00:16;;;;;;;7.27;4.80;;;;;;;-143.84;58.95;44971.00;5092303;28;20438;-78
2022/06/27 05:02:44;;;;;;;10.73;4.30;;;;;;;-143.84;57.44;44957.66;5092695;28;21336;-79
2022/06/27 05:05:12;;;;;;;6.23;5.57;;;;;;;-143.84;57.13;44955.75;5092374;28;20435;-79
2022/06/27 05:07:39;;;;;;;7.50;4.43;;;;;;;-143.84;57.12;44971.00;5092221;28;20448;-79
2022/06/27 05:10:08;;;;;;;8.77;4.63;;;;;;;-143.84;57.36;44988.13;5092253;28;20435;-79
2022/06/27 05:12:36;;;;;;;10.03;5.30;;;;;;;-143.84;58.03;44969.09;5092472;28;20847;-79
2022/06/27 05:15:05;;;;;;;4.93;4.40;;;;;;;-143.84;58.45;44976.72;5091646;28;20472;-79
2022/06/27 05:17:33;;;;;;;13.13;5.33;;;;;;;-143.84;57.69;44976.72;5092638;28;20424;-79
2022/06/27 05:20:02;;;;;;;8.93;4.17;;;;;;;-143.84;57.20;44959.56;5091916;28;20444;-79
2022/06/27 05:22:30;;;;;;;4.23;3.93;;;;;;;-143.84;55.62;44965.28;5092204;28;20443;-79
2022/06/27 05:24:58;;;;;;;6.27;4.60;;;;;;;-143.84;55.13;44961.47;5091974;28;20439;-79
2022/06/27 05:27:26;;;;;;;4.80;4.23;;;;;;;-143.84;53.26;44932.91;5091936;28;20522;-79
2022/06/27 05:29:55;;;;;;;18.97;5.27;;;;;;;-143.84;52.55;44934.81;5091629;28;20547;-79
2022/06/27 05:32:22;;;;;;;6.80;4.07;;;;;;;-143.84;51.35;44936.72;5091703;28;20443;-79
2022/06/27 05:34:49;;;;;;;4.60;4.17;;;;;;;-143.84;50.07;44932.91;5091905;28;20997;-79
2022/06/27 05:37:16;;;;;;;5.00;4.33;;;;;;;-143.84;48.41;44946.25;5091667;28;20470;-79
2022/06/27 05:39:45;;;;;;;5.37;3.53;;;;;;;-143.84;46.87;44929.09;5091349;28;20559;-79
2022/06/27 05:42:12;;;;;;;4.57;4.20;;;;;;;-143.84;45.21;44923.41;5091775;28;20505;-78
2022/06/27 05:44:40;;;;;;;6.20;3.90;;;;;;;-143.84;44.93;44904.34;5092150;28;20494;-78
2022/06/27 05:47:09;;;;;;;4.67;4.27;;;;;;;-143.84;44.12;44917.69;5091234;28;20911;-79
2022/06/27 05:49:37;;;;;;;9.13;3.70;;;;;;;-143.84;42.40;44904.34;5091461;28;20846;-78
2022/06/27 05:52:05;;;;;;;8.53;3.90;;;;;;;-143.84;43.04;44887.22;5091182;28;20444;-79
2022/06/27 05:54:32;;;;;;;4.43;3.23;;;;;;;-143.84;42.42;44856.75;5091671;28;20960;-79
2022/06/27 05:56:59;;;;;;;8.50;4.30;;;;;;;-143.84;41.88;44875.78;5091859;28;20446;-79
2022/06/27 05:59:26;;;;;;;7.93;3.60;;;;;;;-143.84;41.42;44854.84;5091248;28;20455;-79
2022/06/27 06:01:54;;;;;;;6.83;3.97;;;;;;;-143.84;40.14;44852.94;5091339;28;20948;-79
2022/06/27 06:04:23;;;;;;;5.53;3.80;;;;;;;-143.84;40.37;44873.88;5091557;28;20852;-79
2022/06/27 06:06:51;;;;;;;5.77;3.70;;;;;;;-143.84;39.94;44868.19;5090911;28;20432;-79
2022/06/27 06:09:18;;;;;;;4.13;3.73;;;;;;;-143.84;39.36;44873.88;5091185;28;20448;-79
2022/06/27 06:11:48;;;;;;;5.10;3.90;;;;;;;-143.84;39.04;44883.41;5091326;28;20448;-79
2022/06/27 06:14:16;;;;;;;3.47;3.17;;;;;;;-143.84;38.72;44847.22;5091066;28;20463;-79
2022/06/27 06:16:43;;;;;;;4.80;3.47;;;;;;;-143.84;38.34;44847.22;5091213;28;20941;-79
2022/06/27 06:19:11;;;;;;;4.30;3.90;;;;;;;-143.84;38.15;44847.22;5091398;28;20439;-79
2022/06/27 06:21:41;;;;;;;6.10;3.90;;;;;;;-143.84;37.90;44847.22;5090935;28;20795;-79
2022/06/27 06:24:08;;;;;;;4.43;3.40;;;;;;;-143.84;37.87;44843.44;5091324;28;21148;-79
2022/06/27 06:26:35;;;;;;;6.83;4.10;;;;;;;-143.84;38.54;44858.66;5091569;28;20470;-79
2022/06/27 06:29:12;;;;;;;10.23;3.73;;;;;;;-143.84;38.91;44862.47;5091285;28;20420;-79
2022/06/27 06:31:41;;;;;;;4.47;3.33;;;;;;;-143.84;39.29;44871.97;5090755;28;20427;-79
2022/06/27 06:34:08;;;;;;;5.87;3.20;;;;;;;-143.84;38.02;44839.63;5090573;28;20471;-79
2022/06/27 06:36:37;;;;;;;9.33;3.60;;;;;;;-143.84;37.90;44845.31;5090539;28;20514;-79
2022/06/27 06:39:06;;;;;;;8.33;3.90;;;;;;;-143.84;38.18;44835.81;5087836;28;20452;-79
2022/06/27 06:41:35;;;;;;;7.77;3.50;;;;;;;-143.84;38.38;44852.94;5087703;28;20488;-79
2022/06/27 06:44:05;;;;;;;5.00;3.20;;;;;;;-143.84;37.50;44837.72;5089932;28;20832;-79
2022/06/27 06:46:33;;;;;;;4.20;3.63;;;;;;;-143.84;37.53;44811.06;5090519;28;21318;-79
2022/06/27 06:49:06;;;;;;;6.30;3.77;;;;;;;-143.84;37.57;44801.53;5090646;28;20452;-79
2022/06/27 06:51:35;;;;;;;7.03;3.60;;;;;;;-143.84;37.87;44830.09;5091060;28;20448;-79
2022/06/27 06:54:03;;;;;;;5.40;3.70;;;;;;;-143.84;37.72;44830.09;5090437;28;20460;-79
2022/06/27 06:56:32;;;;;;;3.90;3.50;;;;;;;-143.84;37.85;44824.38;5090980;28;20436;-79
2022/06/27 06:58:59;;;;;;;4.33;3.03;;;;;;;-143.84;37.11;44845.31;5090883;28;20497;-79
2022/06/27 07:01:27;;;;;;;3.93;3.53;;;;;;;-143.84;36.66;44845.31;5090947;28;20927;-79
2022/06/27 07:03:55;;;;;;;3.90;3.70;;;;;;;-143.84;36.68;44797.72;5090784;28;20454;-79
2022/06/27 07:06:24;;;;;;;5.80;3.40;;;;;;;-143.84;37.26;44839.63;5090565;28;20440;-79
2022/06/27 07:08:53;;;;;;;7.87;3.63;;;;;;;-143.84;37.06;44845.31;5091320;28;20431;-79
2022/06/27 07:11:22;;;;;;;6.83;3.47;;;;;;;-143.84;37.48;44812.97;5090565;28;20848;-77
2022/06/27 07:13:52;;;;;;;3.90;3.57;;;;;;;-143.84;37.46;44795.81;5090931;28;20501;-76
2022/06/27 07:16:20;;;;;;;3.97;3.60;;;;;;;-143.84;37.13;44822.47;5091250;28;20420;-76
2022/06/27 07:18:48;;;;;;;4.53;4.10;;;;;;;-143.84;38.26;44778.69;5091488;28;20454;-76
2022/06/27 07:21:16;;;;;;;3.67;3.47;;;;;;;-143.84;36.50;44835.81;5095014;28;20435;-76
2022/06/27 07:23:44;;;;;;;5.87;3.90;;;;;;;-143.84;37.21;44833.91;5094896;28;20439;-76
2022/06/27 07:26:12;;;;;;;12.67;3.97;;;;;;;-143.84;37.96;44824.38;5095014;28;20432;-76
2022/06/27 07:28:40;;;;;;;10.20;4.40;;;;;;;-143.84;37.57;44856.75;5094472;28;20436;-76
2022/06/27 07:31:11;;;;;;;6.53;3.77;;;;;;;-143.84;37.30;44807.25;5094793;28;20526;-76
2022/06/27 07:33:39;;;;;;;5.13;3.87;;;;;;;-143.84;37.34;44826.28;5094675;28;20514;-76
2022/06/27 07:36:08;;;;;;;16.33;4.40;;;;;;;-143.84;37.16;44837.72;5094647;28;20486;-76
2022/06/27 07:38:38;;;;;;;5.60;4.07;;;;;;;-143.84;37.77;44780.59;5094634;28;20440;-76
2022/06/27 07:41:05;;;;;;;5.30;3.73;;;;;;;-143.84;37.53;44822.47;5094417;28;20860;-75
2022/06/27 07:43:34;;;;;;;10.57;4.20;;;;;;;-143.84;37.84;44778.69;5094454;28;20534;-75
2022/06/27 07:46:01;;;;;;;4.80;3.13;;;;;;;-143.84;36.74;44847.22;5094222;28;20444;-75
2022/06/27 07:48:31;;;;;;;4.00;3.43;;;;;;;-143.84;36.35;44837.72;5094641;28;20444;-76
2022/06/27 07:50:58;;;;;;;3.40;3.10;;;;;;;-143.84;37.24;44854.84;5095022;28;20453;-76
2022/06/27 07:53:26;;;;;;;5.70;3.50;;;;;;;-143.84;37.25;44786.31;5094595;28;20475;-75
2022/06/27 07:55:55;;;;;;;12.63;4.30;;;;;;;-143.84;37.19;44805.34;5094188;28;20627;-75
2022/06/27 07:58:26;;;;;;;11.53;4.70;;;;;;;-143.84;38.01;44774.88;5094959;28;20428;-75
2022/06/27 08:00:54;;;;;;;5.17;4.47;;;;;;;-143.84;38.01;44788.22;5093907;28;20448;-74
2022/06/27 08:03:40;;;;;;;14.77;4.37;;;;;;;-143.84;37.30;44799.63;5093765;28;20495;-74
2022/06/27 08:06:10;;;;;;;6.83;4.10;;;;;;;-143.84;36.96;44845.31;5093816;28;20436;-75
2022/06/27 08:08:41;;;;;;;8.73;3.43;;;;;;;-143.84;37.41;44826.28;5093739;28;21246;-75
2022/06/27 08:11:10;;;;;;;3.63;3.30;;;;;;;-143.84;36.04;44769.16;5080030;28;20457;-75
2022/06/27 08:13:40;;;;;;;6.10;3.20;;;;;;;-143.84;35.25;44826.28;5078854;28;21857;-75
2022/06/27 08:16:08;;;;;;;5.30;3.50;;;;;;;-143.84;36.99;44822.47;5079201;28;20480;-75
2022/06/27 08:18:38;;;;;;;3.67;3.37;;;;;;;-143.84;35.92;44830.09;5076261;28;21399;-75
2022/06/27 08:21:07;;;;;;;9.90;3.33;;;;;;;-143.84;37.12;44805.34;5075967;28;20471;-75
2022/06/27 08:23:38;;;;;;;4.10;3.43;;;;;;;-143.84;36.95;44805.34;5078636;28;20460;-75
2022/06/27 08:26:06;;;;;;;5.67;3.30;;;;;;;-143.84;36.60;44830.09;5076548;28;20437;-75
2022/06/27 08:28:34;;;;;;;3.43;3.23;;;;;;;-143.84;36.87;44820.56;5077718;28;20983;-75
2022/06/27 08:31:02;;;;;;;8.30;3.57;;;;;;;-143.84;36.48;44818.66;5075981;28;20476;-75
2022/06/27 08:33:30;;;;;;;14.67;3.83;;;;;;;-143.84;37.41;44807.25;5076611;28;20502;-75
2022/06/27 08:35:58;;;;;;;3.73;2.90;;;;;;;-143.84;36.62;44849.13;5075298;28;20509;-75
2022/06/27 08:38:25;;;;;;;4.57;3.07;;;;;;;-143.84;36.69;44833.91;5079162;28;20450;-75
2022/06/27 08:40:56;;;;;;;12.17;3.10;;;;;;;-143.84;36.71;44826.28;5078772;28;20917;-75
2022/06/27 08:43:26;;;;;;;8.17;3.17;;;;;;;-143.84;36.43;44811.06;5076276;28;20538;-75
2022/06/27 08:45:54;;;;;;;2.97;2.77;;;;;;;-143.84;36.88;44843.44;5071063;28;20445;-77
2022/06/27 08:48:23;;;;;;;5.10;3.20;;;;;;;-143.84;36.27;44826.28;5074397;28;20453;-76
2022/06/27 08:50:51;;;;;;;5.87;3.10;;;;;;;-143.84;36.05;44818.66;5069499;28;21342;-77
2022/06/27 08:53:19;;;;;;;2.97;2.67;;;;;;;-143.84;37.56;44826.28;5076803;28;20451;-77
2022/06/27 08:55:48;;;;;;;7.23;2.90;;;;;;;-143.84;36.15;44837.72;5074161;28;20475;-77
2022/06/27 08:58:16;;;;;;;4.80;2.87;;;;;;;-143.84;35.73;44862.47;5074096;28;20451;-77
2022/06/27 09:00:46;;;;;;;2.93;2.73;;;;;;;-143.84;36.41;44803.44;5074660;28;20800;-76
2022/06/27 09:03:14;;;;;;;3.43;3.20;;;;;;;-143.84;36.77;44784.41;5077965;28;21009;-76
2022/06/27 09:05:44;;;;;;;5.00;2.53;;;;;;;-143.84;36.66;44814.88;5075426;28;20450;-75
2022/06/27 09:08:12;;;;;;;10.83;3.20;;;;;;;-143.84;36.87;44793.91;5075239;28;21033;-75
2022/06/27 09:10:42;;;;;;;17.60;3.23;;;;;;;-143.84;35.57;44799.63;5079013;28;21365;-78
2022/06/27 09:13:11;;;;;;;7.70;2.30;;;;;;;-143.84;35.02;44801.53;5075057;28;20559;-78
2022/06/27 09:15:51;;;;;;;3.23;2.93;;;;;;;-143.84;35.02;44803.44;5077599;28;20554;-78
2022/06/27 09:18:22;;;;;;;2.70;2.50;;;;;;;-143.84;35.53;44805.34;5073839;28;20459;-78
2022/06/27 09:20:57;;;;;;;4.20;2.70;;;;;;;-143.84;36.44;44811.06;5073769;28;20444;-78
2022/06/27 09:23:35;;;;;;;7.97;2.60;;;;;;;-143.84;35.59;44835.81;5074484;28;20451;-78
2022/06/27 09:26:06;;;;;;;4.67;2.93;;;;;;;-143.84;34.94;44835.81;5074209;28;20456;-78
2022/06/27 09:28:58;;;;;;;10.10;3.23;;;;;;;-143.84;35.53;44830.09;5071919;28;20452;-78
2022/06/27 09:31:45;;;;;;;4.90;2.70;;;;;;;-143.84;35.37;44795.81;5054222;28;20530;-78
2022/06/27 09:34:18;;;;;;;3.20;2.63;;;;;;;-143.84;36.67;44824.38;5075027;28;20456;-78
2022/06/27 09:36:49;;;;;;;6.13;3.10;;;;;;;-143.84;37.04;44822.47;5070063;28;20480;-78
2022/06/27 09:39:28;;;;;;;5.83;2.90;;;;;;;-143.84;35.43;44807.25;5076105;28;20848;-78
2022/06/27 09:41:59;;;;;;;2.87;2.67;;;;;;;-143.84;35.75;44799.63;5072805;28;20490;-78
2022/06/27 09:44:30;;;;;;;5.00;2.90;;;;;;;-143.84;36.36;44826.28;5073039;28;20468;-78
2022/06/27 09:47:05;;;;;;;8.70;2.70;;;;;;;-143.84;35.51;44826.28;5074511;28;20441;-78
2022/06/27 09:49:35;;;;;;;3.57;2.90;;;;;;;-143.84;36.39;44790.13;5071520;28;20532;-78
2022/06/27 09:52:05;;;;;;;3.20;3.00;;;;;;;-143.84;35.99;44814.88;5073997;28;20456;-78
2022/06/27 09:54:34;;;;;;;7.13;3.03;;;;;;;-143.84;35.72;44837.72;5073205;28;20449;-78
2022/06/27 09:57:03;;;;;;;3.30;2.60;;;;;;;-143.84;35.99;44822.47;5073761;28;20451;-78
2022/06/27 09:59:30;;;;;;;2.83;2.63;;;;;;;-143.84;35.22;44793.91;5072511;28;20455;-78
2022/06/27 10:01:58;;;;;;;12.03;2.70;;;;;;;-143.84;36.27;44828.19;5073331;28;21063;-78
2022/06/27 10:04:29;;;;;;;9.83;2.90;;;;;;;-143.84;36.11;44811.06;5071875;28;20523;-78
2022/06/27 10:06:59;;;;;;;3.73;3.20;;;;;;;-143.84;36.08;44824.38;5076693;28;20460;-78
2022/06/27 10:09:29;;;;;;;3.83;2.57;;;;;;;-143.84;35.02;44833.91;5072480;28;20445;-78
2022/06/27 10:12:24;;;;;;;3.50;3.20;;;;;;;-143.84;35.96;44832.00;5069903;28;20449;-78
2022/06/27 10:15:20;;;;;;;2.60;2.40;;;;;;;-143.84;36.69;44860.56;5062939;28;20503;-78
2022/06/27 10:17:56;;;;;;;2.80;2.43;;;;;;;-143.84;36.76;44828.19;5075100;28;20960;-78
2022/06/27 10:20:37;;;;;;;2.77;2.57;;;;;;;-143.84;37.62;44826.28;5077412;28;20941;-78
2022/06/27 10:23:26;;;;;;;6.67;2.63;;;;;;;-143.84;36.66;44822.47;5074584;28;20444;-78
2022/06/27 10:25:54;;;;;;;6.87;3.13;;;;;;;-143.84;35.67;44803.44;5073617;28;20475;-78
2022/06/27 10:28:24;;;;;;;3.73;2.20;;;;;;;-143.84;35.24;44818.66;5073353;28;20506;-78
2022/06/27 10:30:53;;;;;;;3.87;2.50;;;;;;;-143.84;36.29;44824.38;5070937;28;20504;-78
2022/06/27 10:33:40;;;;;;;15.67;3.40;;;;;;;-143.84;36.25;44852.94;5073223;28;20445;-78
2022/06/27 10:36:13;;;;;;;8.43;3.30;;;;;;;-143.84;36.21;44803.44;5073481;28;20476;-78
2022/06/27 10:39:03;;;;;;;4.60;2.77;;;;;;;-143.84;36.63;44812.97;5073927;28;20498;-78
2022/06/27 10:41:39;;;;;;;3.77;2.57;;;;;;;-143.84;36.29;44782.50;5064702;28;20495;-77
2022/06/27 10:44:26;;;;;;;4.20;2.60;;;;;;;-143.84;35.03;44797.72;5074768;28;20931;-77
2022/06/27 10:46:53;;;;;;;5.53;2.37;;;;;;;-143.84;35.39;44811.06;5073084;28;20459;-77
2022/06/27 10:49:22;;;;;;;3.80;2.50;;;;;;;-143.84;35.75;44792.00;5071166;28;20874;-77
2022/06/27 10:51:51;;;;;;;3.03;2.73;;;;;;;-143.84;34.81;44778.69;5070601;28;20452;-77
2022/06/27 10:54:19;;;;;;;4.83;2.73;;;;;;;-143.84;34.28;44799.63;5070117;28;20464;-77
2022/06/27 10:56:48;;;;;;;2.80;2.20;;;;;;;-143.84;33.65;44816.78;5075444;28;20488;-77
2022/06/27 11:00:02;;;;;;;4.80;2.23;;;;;;;-143.84;33.66;44811.06;5072632;28;20444;-77
2022/06/27 11:02:31;;;;;;;10.53;2.80;;;;;;;-143.84;35.62;44788.22;5070987;28;20510;-77
2022/06/27 11:04:59;;;;;;;8.07;3.53;;;;;;;-143.84;34.71;44820.56;5070700;28;20470;-77
2022/06/27 11:07:28;;;;;;;6.93;2.60;;;;;;;-143.84;34.37;44820.56;5072364;28;20445;-77
2022/06/27 11:09:55;;;;;;;2.63;2.33;;;;;;;-143.84;34.19;44828.19;5074178;28;20459;-77
2022/06/27 11:12:30;;;;;;;5.63;2.43;;;;;;;-143.84;34.57;44803.44;5078429;28;20444;-77
2022/06/27 11:14:59;;;;;;;3.93;2.47;;;;;;;-143.84;35.13;44795.81;5090230;28;20497;-77
2022/06/27 11:17:41;;;;;;;5.50;2.80;;;;;;;-143.84;34.96;44832.00;5093370;28;20440;-77
2022/06/27 11:20:11;;;;;;;4.27;2.30;;;;;;;-143.84;34.26;44828.19;5093651;28;20531;-77
2022/06/27 11:22:41;;;;;;;2.20;2.10;;;;;;;-143.84;35.26;44828.19;5093152;28;20455;-76
2022/06/27 11:25:09;;;;;;;5.53;2.77;;;;;;;-143.84;35.51;44851.03;5093977;28;20436;-77
2022/06/27 11:27:51;;;;;;;3.97;2.70;;;;;;;-143.84;35.59;44835.81;5093511;28;20959;-76
2022/06/27 11:33:31;;;;;;;5.93;2.83;;;;;;;-143.84;36.08;44877.69;5093353;28;20439;-76
2022/06/27 11:35:59;;;;;;;5.87;2.80;;;;;;;-143.84;36.47;44826.28;5093108;28;20483;-77
2022/06/27 11:38:30;;;;;;;6.03;3.30;;;;;;;-143.84;39.63;44871.97;5093410;28;20500;-77
2022/06/27 11:41:06;;;;;;;11.73;3.83;;;;;;;-143.84;42.76;44896.75;5093430;28;20532;-76
2022/06/27 11:43:58;;;;;;;24.00;5.13;;;;;;;-143.84;46.41;44875.78;5093600;28;20435;-76
2022/06/27 11:46:34;;;;;;;10.33;4.83;;;;;;;-143.84;50.16;44913.88;5088930;28;20467;-78
2022/06/27 11:49:06;;;;;;;18.57;4.03;;;;;;;-143.84;52.72;44919.59;5093267;28;21023;-79
2022/06/27 11:51:36;;;;;;;9.67;4.87;;;;;;;-143.84;55.06;44898.66;5093342;28;20447;-79
2022/06/27 11:54:08;;;;;;;11.13;4.73;;;;;;;-143.84;57.09;44898.66;5093949;28;20432;-77
2022/06/27 11:56:39;;;;;;;18.47;5.50;;;;;;;-143.84;59.21;44942.44;5096489;28;20478;-77
2022/06/27 11:59:08;;;;;;;12.17;5.20;;;;;;;-143.84;60.54;44953.88;5095590;28;20456;-77
2022/06/27 12:01:51;;;;;;;21.43;5.33;;;;;;;-143.84;63.55;45001.47;5095355;28;21132;-77
2022/06/27 12:04:19;;;;;;;11.80;5.33;;;;;;;-143.84;65.79;44953.88;5094277;28;20420;-77
2022/06/27 12:06:54;;;;;;;14.60;5.00;;;;;;;-143.84;67.81;44938.63;5094266;28;20437;-77
2022/06/27 12:09:23;;;;;;;7.43;4.50;;;;;;;-143.84;67.41;44953.88;5095344;28;20989;-77
2022/06/27 12:11:58;;;;;;;6.53;4.40;;;;;;;-143.84;69.39;44976.72;5093665;28;20435;-77
2022/06/27 12:14:26;;;;;;;6.00;4.40;;;;;;;-143.84;70.10;44972.91;5093911;28;20941;-76
2022/06/27 12:16:55;;;;;;;6.37;4.57;;;;;;;-143.84;70.63;44951.97;5093681;28;20506;-76
2022/06/27 12:19:23;;;;;;;5.03;4.40;;;;;;;-143.84;71.34;44957.66;5093718;28;20440;-76